Weather at Wolf River Landing Strip

Public forecast

Using degrees Fahrenheit for public forecast. Weather courtesy of forecast.io.

Closest aviation weather report (METAR) to Wolf River Landing Strip

Closest report is Clintonville Municipal Airport, 10.0 nm (18.6 km) NW. Retrieved 2020/10/20 04:35 UTC (19 minutes ago):

KCLI 200435Z AUTO 31003KT 10SM CLR M03/M05 A3028 RMK AO2 T10321052

Closest aviation forecast (TAF) to Wolf River Landing Strip

Closest forecast is Appleton International Airport, 15.5 nm (28.7 km) S. Retrieved 2020-10-20 00:24 UTC (4 hours ago):

TAF KATW 192321Z 2000/2024 32003KT P6SM SCT050 OVC070 FM200400 01003KT P6SM SCT070 BKN100 FM201000 04004KT P6SM SCT070 BKN150 FM201600 10007KT P6SM OVC090 FM202000 11007KT 6SM -RA OVC020 FM202200 10007KT 5SM -RA OVC015